Moreau, South Dakota
Current Conditions -  °F | °C
As of 2:55 PM on Thursday 18 Dec 2014 (Local Time) from KPHP Reporting Station
Clear Clear  
Wind Chill: 23°   Ceiling: Unl
Heat Index: 31°   Visibility: 10mi
Dew Point: 23°   Wind: 8mph
Humidity: 72%   Direction: 160°SSE
Pressure: 30.03"   Gusts: NA
Location:  44.8511°N, 102.128°W
Report Text: KPHP 182155Z AUTO 16007KT 10SM CLR M01/M05 A3003 RMK AO2 SLP190 T10061050
Loading
Personal Weather Stations






























Interactive Weather Map New forecast layout! Learn more

10-Day Weather Forecast

Advertisements
Track Severe Weather on mobile